Været på Ålesund Lufhavn, Vigra (ENAL)

 

Time for time, neste 48 timer:

Detaljert varsel fra yr.no - 48 timer

Vindprognose for Breisundet:

Vindvarsel

Upper Winds 3000 fot akkurat nå:

ENAL akkurat nå:

  • METAR: 131750Z 14004KT 9999 -RADZ SCT007 BKN023 02/01 Q0998
  • TAF: TAF 131700Z 1318/1323 08007KT 9999 -RA SCT012 BKN025 PROB30 1318/1323 4000 RADZ BKN009